Airport, Ohio
Current Conditions -  °F | °C
As of 5:52 PM on Thursday 18 Dec 2014 (Local Time) from KCVG Reporting Station
Overcast Overcast  
Wind Chill: 29°   Ceiling: 7000
Heat Index: 29°   Visibility: 10mi
Dew Point: 19°   Wind: 0mph
Humidity: 67%   Direction: NA
Pressure: 30.21"   Gusts: NA
Location:  39.0588°N, 84.6513°W
Report Text: KCVG 182252Z 00000KT 10SM OVC070 M02/M07 A3021 RMK AO2 SLP237 T10171072
Loading
Personal Weather Stations






























Interactive Weather Map New forecast layout! Learn more

10-Day Weather Forecast

Advertisements
Track Severe Weather on mobile